sensor_id;sensor_type;location;lat;lon;timestamp;pressure;altitude;pressure_sealevel;temperature;humidity
61086;BME280;46967;48.876;2.136;2022-09-09T00:02:28;100795.66;;;15.65;81.86
61086;BME280;46967;48.876;2.136;2022-09-09T00:07:43;100790.41;;;15.65;81.30
61086;BME280;46967;48.876;2.136;2022-09-09T00:13:22;100791.44;;;15.63;81.06
61086;BME280;46967;48.876;2.136;2022-09-09T00:21:37;100795.13;;;15.58;81.36
61086;BME280;46967;48.876;2.136;2022-09-09T00:26:53;100802.72;;;15.63;80.65
61086;BME280;46967;48.876;2.136;2022-09-09T00:29:28;100796.28;;;15.53;81.60
61086;BME280;46967;48.876;2.136;2022-09-09T00:31:57;100794.88;;;15.63;81.28
61086;BME280;46967;48.876;2.136;2022-09-09T00:34:29;100797.72;;;15.58;81.79
61086;BME280;46967;48.876;2.136;2022-09-09T00:36:55;100795.97;;;15.59;81.96
61086;BME280;46967;48.876;2.136;2022-09-09T00:39:53;100789.72;;;15.62;80.95
61086;BME280;46967;48.876;2.136;2022-09-09T00:42:25;100799.97;;;15.49;81.67
61086;BME280;46967;48.876;2.136;2022-09-09T00:47:52;100789.22;;;15.55;81.22
61086;BME280;46967;48.876;2.136;2022-09-09T00:58:33;100774.81;;;15.46;82.19
61086;BME280;46967;48.876;2.136;2022-09-09T01:01:04;100785.19;;;15.48;82.65
61086;BME280;46967;48.876;2.136;2022-09-09T01:03:51;100778.81;;;15.53;82.01
61086;BME280;46967;48.876;2.136;2022-09-09T01:17:05;100768.50;;;15.50;82.57
61086;BME280;46967;48.876;2.136;2022-09-09T01:22:35;100763.59;;;15.44;83.13
61086;BME280;46967;48.876;2.136;2022-09-09T01:28:08;100763.88;;;15.55;82.37
61086;BME280;46967;48.876;2.136;2022-09-09T01:30:38;100762.59;;;15.47;82.96
61086;BME280;46967;48.876;2.136;2022-09-09T01:33:04;100768.00;;;15.44;82.97
61086;BME280;46967;48.876;2.136;2022-09-09T01:35:52;100777.13;;;15.52;82.98
61086;BME280;46967;48.876;2.136;2022-09-09T01:38:23;100776.66;;;15.62;82.50
61086;BME280;46967;48.876;2.136;2022-09-09T01:40:50;100767.22;;;15.59;82.67
61086;BME280;46967;48.876;2.136;2022-09-09T01:43:18;100761.03;;;15.60;82.48
61086;BME280;46967;48.876;2.136;2022-09-09T01:45:46;100752.88;;;15.66;82.55
61086;BME280;46967;48.876;2.136;2022-09-09T01:48:15;100774.03;;;15.62;83.17
61086;BME280;46967;48.876;2.136;2022-09-09T01:50:40;100759.81;;;15.67;82.30
61086;BME280;46967;48.876;2.136;2022-09-09T01:53:06;100759.81;;;15.67;82.08
61086;BME280;46967;48.876;2.136;2022-09-09T01:59:22;100757.88;;;15.71;82.10
61086;BME280;46967;48.876;2.136;2022-09-09T02:02:11;100760.41;;;15.72;82.33
61086;BME280;46967;48.876;2.136;2022-09-09T02:04:48;100751.88;;;15.69;82.21
61086;BME280;46967;48.876;2.136;2022-09-09T02:07:44;100758.09;;;15.66;82.31
61086;BME280;46967;48.876;2.136;2022-09-09T02:10:16;100761.91;;;15.61;82.61
61086;BME280;46967;48.876;2.136;2022-09-09T02:12:46;100751.16;;;15.65;82.42
61086;BME280;46967;48.876;2.136;2022-09-09T02:15:30;100749.81;;;15.58;83.07
61086;BME280;46967;48.876;2.136;2022-09-09T02:17:58;100750.88;;;15.54;82.22
61086;BME280;46967;48.876;2.136;2022-09-09T02:20:24;100751.91;;;15.51;83.17
61086;BME280;46967;48.876;2.136;2022-09-09T02:22:53;100757.75;;;15.56;82.27
61086;BME280;46967;48.876;2.136;2022-09-09T02:25:22;100751.91;;;15.51;83.13
61086;BME280;46967;48.876;2.136;2022-09-09T02:27:50;100752.66;;;15.53;83.00
61086;BME280;46967;48.876;2.136;2022-09-09T02:30:16;100752.59;;;15.55;82.89
61086;BME280;46967;48.876;2.136;2022-09-09T02:32:43;100757.66;;;15.58;82.68
61086;BME280;46967;48.876;2.136;2022-09-09T02:35:17;100746.38;;;15.57;83.07
61086;BME280;46967;48.876;2.136;2022-09-09T02:37:44;100743.75;;;15.57;82.85
61086;BME280;46967;48.876;2.136;2022-09-09T02:40:12;100741.88;;;15.60;82.90
61086;BME280;46967;48.876;2.136;2022-09-09T02:42:41;100746.88;;;15.64;82.97
61086;BME280;46967;48.876;2.136;2022-09-09T02:45:09;100735.75;;;15.61;82.91
61086;BME280;46967;48.876;2.136;2022-09-09T02:48:20;100739.28;;;15.60;83.17
61086;BME280;46967;48.876;2.136;2022-09-09T02:50:32;100735.91;;;15.57;83.15
61086;BME280;46967;48.876;2.136;2022-09-09T02:55:56;100750.19;;;15.68;82.78
61086;BME280;46967;48.876;2.136;2022-09-09T02:58:23;100747.66;;;15.66;82.79
61086;BME280;46967;48.876;2.136;2022-09-09T03:00:50;100737.69;;;15.73;82.70
61086;BME280;46967;48.876;2.136;2022-09-09T03:03:17;100740.22;;;15.74;82.43
61086;BME280;46967;48.876;2.136;2022-09-09T03:05:45;100734.91;;;15.76;81.89
61086;BME280;46967;48.876;2.136;2022-09-09T03:08:11;100735.09;;;15.73;82.34
61086;BME280;46967;48.876;2.136;2022-09-09T03:10:38;100740.22;;;15.74;82.43
61086;BME280;46967;48.876;2.136;2022-09-09T03:13:03;100739.56;;;15.71;82.54
61086;BME280;46967;48.876;2.136;2022-09-09T03:15:32;100740.78;;;15.64;83.20
61086;BME280;46967;48.876;2.136;2022-09-09T03:17:58;100740.78;;;15.64;82.89
61086;BME280;46967;48.876;2.136;2022-09-09T03:20:26;100741.66;;;15.64;83.09
61086;BME280;46967;48.876;2.136;2022-09-09T03:22:52;100744.03;;;15.69;83.26
61086;BME280;46967;48.876;2.136;2022-09-09T03:25:18;100746.41;;;15.73;82.59
61086;BME280;46967;48.876;2.136;2022-09-09T03:27:44;100737.53;;;15.76;81.59
61086;BME280;46967;48.876;2.136;2022-09-09T03:30:09;100745.38;;;15.76;82.46
61086;BME280;46967;48.876;2.136;2022-09-09T03:32:35;100738.34;;;15.78;81.87
61086;BME280;46967;48.876;2.136;2022-09-09T03:35:00;100730.78;;;15.72;82.28
61086;BME280;46967;48.876;2.136;2022-09-09T03:37:26;100729.84;;;15.73;82.21
61086;BME280;46967;48.876;2.136;2022-09-09T03:39:51;100719.63;;;15.68;82.14
61086;BME280;46967;48.876;2.136;2022-09-09T03:42:19;100726.41;;;15.72;81.89
61086;BME280;46967;48.876;2.136;2022-09-09T03:44:48;100725.00;;;15.65;82.46
61086;BME280;46967;48.876;2.136;2022-09-09T03:47:18;100723.41;;;15.63;82.32
61086;BME280;46967;48.876;2.136;2022-09-09T03:49:44;100723.34;;;15.64;82.35
61086;BME280;46967;48.876;2.136;2022-09-09T03:52:09;100725.28;;;15.61;82.27
61086;BME280;46967;48.876;2.136;2022-09-09T03:54:35;100720.06;;;15.61;82.45
61086;BME280;46967;48.876;2.136;2022-09-09T03:57:01;100723.91;;;15.53;82.76
61086;BME280;46967;48.876;2.136;2022-09-09T03:59:26;100717.03;;;15.51;82.69
61086;BME280;46967;48.876;2.136;2022-09-09T04:01:52;100713.66;;;15.49;83.43
61086;BME280;46967;48.876;2.136;2022-09-09T04:04:18;100719.13;;;15.44;83.34
61086;BME280;46967;48.876;2.136;2022-09-09T04:06:45;100712.31;;;15.42;83.51
61086;BME280;46967;48.876;2.136;2022-09-09T04:09:10;100718.47;;;15.40;83.76
61086;BME280;46967;48.876;2.136;2022-09-09T04:11:35;100715.75;;;15.42;83.57
61086;BME280;46967;48.876;2.136;2022-09-09T04:14:02;100714.94;;;15.42;83.50
61086;BME280;46967;48.876;2.136;2022-09-09T04:16:27;100717.94;;;15.34;84.15
61086;BME280;46967;48.876;2.136;2022-09-09T04:18:53;100710.00;;;15.35;83.92
61086;BME280;46967;48.876;2.136;2022-09-09T04:21:18;100712.63;;;15.35;84.10
61086;BME280;46967;48.876;2.136;2022-09-09T04:23:44;100703.69;;;15.39;83.96
61086;BME280;46967;48.876;2.136;2022-09-09T04:26:09;100715.91;;;15.39;84.01
61086;BME280;46967;48.876;2.136;2022-09-09T04:28:36;100704.78;;;15.35;83.98
61086;BME280;46967;48.876;2.136;2022-09-09T04:31:10;100711.75;;;15.35;84.09
61086;BME280;46967;48.876;2.136;2022-09-09T04:33:36;100718.75;;;15.34;84.10
61086;BME280;46967;48.876;2.136;2022-09-09T04:36:02;100714.69;;;15.29;84.17
61086;BME280;46967;48.876;2.136;2022-09-09T04:38:27;100702.72;;;15.25;84.55
61086;BME280;46967;48.876;2.136;2022-09-09T04:40:52;100714.84;;;15.26;84.43
61086;BME280;46967;48.876;2.136;2022-09-09T04:43:19;100706.84;;;15.29;84.40
61086;BME280;46967;48.876;2.136;2022-09-09T04:45:49;100710.47;;;15.26;84.19
61086;BME280;46967;48.876;2.136;2022-09-09T04:48:16;100711.16;;;15.30;84.42
61086;BME280;46967;48.876;2.136;2022-09-09T04:50:41;100717.88;;;15.18;85.20
61086;BME280;46967;48.876;2.136;2022-09-09T04:53:07;100720.84;;;15.28;84.62
61086;BME280;46967;48.876;2.136;2022-09-09T04:55:33;100719.47;;;15.20;84.58
61086;BME280;46967;48.876;2.136;2022-09-09T04:58:04;100722.16;;;15.19;84.67
61086;BME280;46967;48.876;2.136;2022-09-09T05:00:30;100723.78;;;15.21;84.55
61086;BME280;46967;48.876;2.136;2022-09-09T05:02:56;100718.84;;;15.15;84.44
61086;BME280;46967;48.876;2.136;2022-09-09T05:05:21;100728.47;;;15.15;84.85
61086;BME280;46967;48.876;2.136;2022-09-09T05:07:47;100730.16;;;15.16;84.54
61086;BME280;46967;48.876;2.136;2022-09-09T05:10:13;100724.84;;;15.17;85.38
61086;BME280;46967;48.876;2.136;2022-09-09T05:12:39;100731.09;;;15.15;84.67
61086;BME280;46967;48.876;2.136;2022-09-09T05:15:05;100731.78;;;15.18;84.69
61086;BME280;46967;48.876;2.136;2022-09-09T05:17:30;100728.69;;;15.10;85.07
61086;BME280;46967;48.876;2.136;2022-09-09T05:19:56;100735.38;;;15.16;84.72
61086;BME280;46967;48.876;2.136;2022-09-09T05:22:22;100732.06;;;15.12;84.84
61086;BME280;46967;48.876;2.136;2022-09-09T05:24:49;100734.75;;;15.11;84.83
61086;BME280;46967;48.876;2.136;2022-09-09T05:27:18;100737.38;;;15.11;85.03
61086;BME280;46967;48.876;2.136;2022-09-09T05:29:45;100736.47;;;15.12;85.27
61086;BME280;46967;48.876;2.136;2022-09-09T05:32:11;100740.69;;;15.14;85.03
61086;BME280;46967;48.876;2.136;2022-09-09T05:34:36;100735.53;;;15.13;85.23
61086;BME280;46967;48.876;2.136;2022-09-09T05:37:03;100736.25;;;15.16;84.92
61086;BME280;46967;48.876;2.136;2022-09-09T05:39:29;100738.38;;;15.26;84.54
61086;BME280;46967;48.876;2.136;2022-09-09T05:41:55;100749.84;;;15.23;84.84
61086;BME280;46967;48.876;2.136;2022-09-09T05:44:20;100742.00;;;15.23;85.34
61086;BME280;46967;48.876;2.136;2022-09-09T05:46:46;100740.00;;;15.28;85.09
61086;BME280;46967;48.876;2.136;2022-09-09T05:49:11;100749.47;;;15.31;85.08
61086;BME280;46967;48.876;2.136;2022-09-09T05:51:36;100746.78;;;15.32;84.94
61086;BME280;46967;48.876;2.136;2022-09-09T05:54:02;100739.53;;;15.37;84.92
61086;BME280;46967;48.876;2.136;2022-09-09T05:56:28;100748.06;;;15.41;84.90
61086;BME280;46967;48.876;2.136;2022-09-09T05:58:55;100750.66;;;15.41;85.01
61086;BME280;46967;48.876;2.136;2022-09-09T06:01:25;100746.75;;;15.50;84.31
61086;BME280;46967;48.876;2.136;2022-09-09T06:03:52;100748.03;;;15.58;84.46
61086;BME280;46967;48.876;2.136;2022-09-09T06:06:20;100751.44;;;15.61;83.75
61086;BME280;46967;48.876;2.136;2022-09-09T06:08:50;100753.94;;;15.62;84.03
61086;BME280;46967;48.876;2.136;2022-09-09T06:11:21;100749.34;;;15.67;83.47
61086;BME280;46967;48.876;2.136;2022-09-09T06:13:48;100747.31;;;15.72;83.52
61086;BME280;46967;48.876;2.136;2022-09-09T06:16:18;100752.47;;;15.74;83.16
61086;BME280;46967;48.876;2.136;2022-09-09T06:18:44;100746.88;;;15.82;82.95
61086;BME280;46967;48.876;2.136;2022-09-09T06:21:23;100752.19;;;15.80;82.76
61086;BME280;46967;48.876;2.136;2022-09-09T06:23:49;100752.13;;;15.82;82.90
61086;BME280;46967;48.876;2.136;2022-09-09T06:28:53;100754.25;;;15.91;82.11
61086;BME280;46967;48.876;2.136;2022-09-09T06:31:21;100751.41;;;15.96;82.00
61086;BME280;46967;48.876;2.136;2022-09-09T06:33:48;100748.59;;;15.99;81.60
61086;BME280;46967;48.876;2.136;2022-09-09T06:36:23;100754.59;;;16.01;81.81
61086;BME280;46967;48.876;2.136;2022-09-09T06:38:48;100749.88;;;16.07;80.60
61086;BME280;46967;48.876;2.136;2022-09-09T06:41:17;100752.66;;;16.04;80.88
61086;BME280;46967;48.876;2.136;2022-09-09T06:43:44;100756.13;;;16.21;80.38
61086;BME280;46967;48.876;2.136;2022-09-09T06:46:17;100751.84;;;16.20;80.63
61086;BME280;46967;48.876;2.136;2022-09-09T06:48:44;100755.88;;;16.25;79.73
61086;BME280;46967;48.876;2.136;2022-09-09T06:51:10;100752.19;;;16.29;79.75
61086;BME280;46967;48.876;2.136;2022-09-09T06:53:37;100764.44;;;16.29;80.29
61086;BME280;46967;48.876;2.136;2022-09-09T06:56:30;100765.88;;;16.35;79.30
61086;BME280;46967;48.876;2.136;2022-09-09T06:58:58;100767.31;;;16.40;78.79
61086;BME280;46967;48.876;2.136;2022-09-09T07:01:26;100765.78;;;16.36;78.86
61086;BME280;46967;48.876;2.136;2022-09-09T07:03:53;100769.06;;;16.40;78.99
61086;BME280;46967;48.876;2.136;2022-09-09T07:06:24;100773.72;;;16.35;79.66
61086;BME280;46967;48.876;2.136;2022-09-09T07:08:57;100772.56;;;16.40;79.11
61086;BME280;46967;48.876;2.136;2022-09-09T07:11:26;100765.38;;;16.44;78.89
61086;BME280;46967;48.876;2.136;2022-09-09T07:13:55;100764.44;;;16.45;78.56
61086;BME280;46967;48.876;2.136;2022-09-09T07:16:22;100770.09;;;16.53;78.20
61086;BME280;46967;48.876;2.136;2022-09-09T07:18:50;100770.84;;;16.55;77.96
61086;BME280;46967;48.876;2.136;2022-09-09T07:21:16;100769.19;;;16.54;78.23
61086;BME280;46967;48.876;2.136;2022-09-09T07:23:42;100767.06;;;16.61;77.72
61086;BME280;46967;48.876;2.136;2022-09-09T07:26:15;100772.31;;;16.61;77.37
61086;BME280;46967;48.876;2.136;2022-09-09T07:28:41;100780.66;;;16.67;76.83
61086;BME280;46967;48.876;2.136;2022-09-09T07:31:15;100782.16;;;16.56;77.69
61086;BME280;46967;48.876;2.136;2022-09-09T07:33:41;100785.22;;;16.64;77.38
61086;BME280;46967;48.876;2.136;2022-09-09T07:38:44;100783.25;;;16.83;77.40
61086;BME280;46967;48.876;2.136;2022-09-09T07:41:16;100793.16;;;16.78;76.99
61086;BME280;46967;48.876;2.136;2022-09-09T07:43:44;100786.97;;;16.79;76.76
61086;BME280;46967;48.876;2.136;2022-09-09T07:46:11;100781.72;;;16.79;77.41
61086;BME280;46967;48.876;2.136;2022-09-09T07:48:38;100784.03;;;16.86;76.16
61086;BME280;46967;48.876;2.136;2022-09-09T07:51:10;100787.34;;;16.89;76.94
61086;BME280;46967;48.876;2.136;2022-09-09T07:53:37;100790.97;;;17.02;76.16
61086;BME280;46967;48.876;2.136;2022-09-09T07:56:09;100791.03;;;17.01;75.19
61086;BME280;46967;48.876;2.136;2022-09-09T07:58:38;100793.91;;;17.12;75.21
61086;BME280;46967;48.876;2.136;2022-09-09T08:01:25;100802.72;;;17.11;74.61
61086;BME280;46967;48.876;2.136;2022-09-09T08:04:03;100803.72;;;17.09;75.46
61086;BME280;46967;48.876;2.136;2022-09-09T08:06:31;100816.75;;;17.10;75.50
61086;BME280;46967;48.876;2.136;2022-09-09T08:08:58;100813.09;;;17.13;74.58
61086;BME280;46967;48.876;2.136;2022-09-09T08:11:26;100806.91;;;17.14;73.89
61086;BME280;46967;48.876;2.136;2022-09-09T08:13:53;100805.66;;;17.21;74.24
61086;BME280;46967;48.876;2.136;2022-09-09T08:16:22;100808.28;;;17.21;73.80
61086;BME280;46967;48.876;2.136;2022-09-09T08:18:49;100808.31;;;17.35;72.93
61086;BME280;46967;48.876;2.136;2022-09-09T08:21:20;100803.38;;;17.45;72.82
61086;BME280;46967;48.876;2.136;2022-09-09T08:23:46;100800.00;;;17.43;73.43
61086;BME280;46967;48.876;2.136;2022-09-09T08:26:17;100806.28;;;17.55;72.12
61086;BME280;46967;48.876;2.136;2022-09-09T08:28:48;100807.91;;;17.58;72.23
61086;BME280;46967;48.876;2.136;2022-09-09T08:33:44;100814.63;;;17.62;72.11
61086;BME280;46967;48.876;2.136;2022-09-09T08:36:21;100816.44;;;17.61;71.18
61086;BME280;46967;48.876;2.136;2022-09-09T08:38:51;100819.59;;;17.52;71.54
61086;BME280;46967;48.876;2.136;2022-09-09T08:43:49;100824.84;;;17.52;72.17
61086;BME280;46967;48.876;2.136;2022-09-09T08:51:56;100821.00;;;17.88;70.77
61086;BME280;46967;48.876;2.136;2022-09-09T08:54:23;100829.44;;;18.07;69.75
61086;BME280;46967;48.876;2.136;2022-09-09T08:56:49;100824.47;;;18.17;69.71
61086;BME280;46967;48.876;2.136;2022-09-09T08:59:17;100829.72;;;18.17;68.91
61086;BME280;46967;48.876;2.136;2022-09-09T09:02:00;100819.41;;;18.28;69.22
61086;BME280;46967;48.876;2.136;2022-09-09T09:13:11;100849.03;;;18.59;67.24
61086;BME280;46967;48.876;2.136;2022-09-09T09:15:38;100853.44;;;18.59;67.92
61086;BME280;46967;48.876;2.136;2022-09-09T09:18:10;100847.22;;;18.60;68.65
61086;BME280;46967;48.876;2.136;2022-09-09T09:23:35;100855.47;;;18.68;67.45
61086;BME280;46967;48.876;2.136;2022-09-09T09:26:06;100862.34;;;18.85;67.54
61086;BME280;46967;48.876;2.136;2022-09-09T09:28:34;100876.56;;;18.81;67.92
61086;BME280;46967;48.876;2.136;2022-09-09T09:31:05;100880.41;;;19.04;66.66
61086;BME280;46967;48.876;2.136;2022-09-09T09:36:11;100866.97;;;19.09;65.99
61086;BME280;46967;48.876;2.136;2022-09-09T09:39:00;100876.75;;;19.07;66.16
61086;BME280;46967;48.876;2.136;2022-09-09T09:41:44;100877.28;;;19.39;66.30
61086;BME280;46967;48.876;2.136;2022-09-09T09:44:30;100875.72;;;19.49;65.69
61086;BME280;46967;48.876;2.136;2022-09-09T09:49:32;100884.00;;;19.30;65.55
61086;BME280;46967;48.876;2.136;2022-09-09T09:52:04;100884.28;;;19.26;65.74
61086;BME280;46967;48.876;2.136;2022-09-09T09:54:34;100886.00;;;19.40;65.21
61086;BME280;46967;48.876;2.136;2022-09-09T09:57:12;100879.31;;;19.48;64.36
61086;BME280;46967;48.876;2.136;2022-09-09T09:59:38;100892.66;;;19.45;64.59
61086;BME280;46967;48.876;2.136;2022-09-09T10:04:40;100897.38;;;19.40;65.13
61086;BME280;46967;48.876;2.136;2022-09-09T10:07:17;100896.94;;;19.33;64.38
61086;BME280;46967;48.876;2.136;2022-09-09T10:09:43;100898.97;;;19.43;64.14
61086;BME280;46967;48.876;2.136;2022-09-09T10:13:18;100893.97;;;19.52;64.42
61086;BME280;46967;48.876;2.136;2022-09-09T10:18:08;100900.25;;;19.90;62.48
61086;BME280;46967;48.876;2.136;2022-09-09T10:34:58;100905.31;;;20.32;61.09
61086;BME280;46967;48.876;2.136;2022-09-09T10:37:43;100898.25;;;20.45;61.08
61086;BME280;46967;48.876;2.136;2022-09-09T10:42:44;100892.34;;;20.16;61.26
61086;BME280;46967;48.876;2.136;2022-09-09T10:48:03;100902.59;;;20.07;61.69
61086;BME280;46967;48.876;2.136;2022-09-09T10:50:53;100905.28;;;19.80;62.33
61086;BME280;46967;48.876;2.136;2022-09-09T10:56:03;100900.03;;;19.93;62.94
61086;BME280;46967;48.876;2.136;2022-09-09T11:01:28;100886.00;;;20.57;61.53
61086;BME280;46967;48.876;2.136;2022-09-09T11:04:04;100877.66;;;20.63;60.89
61086;BME280;46967;48.876;2.136;2022-09-09T11:06:36;100895.56;;;20.84;60.30
61086;BME280;46967;48.876;2.136;2022-09-09T11:09:05;100883.56;;;20.54;59.21
61086;BME280;46967;48.876;2.136;2022-09-09T11:11:37;100881.16;;;20.63;59.55
61086;BME280;46967;48.876;2.136;2022-09-09T11:16:39;100895.22;;;20.38;59.52
61086;BME280;46967;48.876;2.136;2022-09-09T11:19:15;100903.59;;;20.82;57.88
61086;BME280;46967;48.876;2.136;2022-09-09T11:21:45;100895.41;;;20.98;56.80
61086;BME280;46967;48.876;2.136;2022-09-09T11:24:28;100907.94;;;20.57;58.12
61086;BME280;46967;48.876;2.136;2022-09-09T11:27:16;100903.88;;;20.15;59.66
61086;BME280;46967;48.876;2.136;2022-09-09T11:32:59;100917.53;;;19.94;61.83
61086;BME280;46967;48.876;2.136;2022-09-09T11:38:50;100900.06;;;20.06;62.76
61086;BME280;46967;48.876;2.136;2022-09-09T11:41:17;100897.72;;;20.01;62.63
61086;BME280;46967;48.876;2.136;2022-09-09T11:43:49;100906.53;;;19.75;63.96
61086;BME280;46967;48.876;2.136;2022-09-09T11:46:21;100908.56;;;19.84;63.63
61086;BME280;46967;48.876;2.136;2022-09-09T11:48:59;100917.13;;;19.87;63.04
61086;BME280;46967;48.876;2.136;2022-09-09T11:51:28;100918.25;;;19.83;63.91
61086;BME280;46967;48.876;2.136;2022-09-09T11:54:00;100921.00;;;19.95;65.29
61086;BME280;46967;48.876;2.136;2022-09-09T11:56:42;100929.53;;;19.98;67.66
61086;BME280;46967;48.876;2.136;2022-09-09T11:59:24;100924.06;;;19.88;67.13
61086;BME280;46967;48.876;2.136;2022-09-09T12:02:00;100922.53;;;19.71;67.23
61086;BME280;46967;48.876;2.136;2022-09-09T12:04:34;100929.63;;;19.57;66.36
61086;BME280;46967;48.876;2.136;2022-09-09T12:07:21;100934.13;;;19.42;67.23
61086;BME280;46967;48.876;2.136;2022-09-09T12:12:31;100954.88;;;19.05;69.53
61086;BME280;46967;48.876;2.136;2022-09-09T12:17:27;100961.28;;;18.72;73.56
61086;BME280;46967;48.876;2.136;2022-09-09T12:28:20;100949.72;;;18.45;77.19
61086;BME280;46967;48.876;2.136;2022-09-09T12:31:06;100952.34;;;18.31;78.46
61086;BME280;46967;48.876;2.136;2022-09-09T12:33:37;100954.41;;;18.26;79.42
61086;BME280;46967;48.876;2.136;2022-09-09T12:36:04;100949.78;;;18.15;77.84
61086;BME280;46967;48.876;2.136;2022-09-09T12:38:36;100947.53;;;18.09;79.60
61086;BME280;46967;48.876;2.136;2022-09-09T12:41:03;100950.59;;;18.01;79.22
61086;BME280;46967;48.876;2.136;2022-09-09T12:43:29;100958.16;;;17.91;80.29
61086;BME280;46967;48.876;2.136;2022-09-09T12:46:08;100961.81;;;17.89;80.43
61086;BME280;46967;48.876;2.136;2022-09-09T12:48:39;100976.28;;;17.80;81.79
61086;BME280;46967;48.876;2.136;2022-09-09T12:51:28;100971.69;;;17.84;82.46
61086;BME280;46967;48.876;2.136;2022-09-09T12:53:55;100976.78;;;17.87;83.13
61086;BME280;46967;48.876;2.136;2022-09-09T12:56:27;100979.09;;;17.77;82.84
61086;BME280;46967;48.876;2.136;2022-09-09T12:58:56;100970.63;;;17.72;82.39
61086;BME280;46967;48.876;2.136;2022-09-09T13:01:27;100962.28;;;17.65;81.93
61086;BME280;46967;48.876;2.136;2022-09-09T13:03:54;100976.75;;;17.56;83.15
61086;BME280;46967;48.876;2.136;2022-09-09T13:06:30;100984.38;;;17.45;83.02
61086;BME280;46967;48.876;2.136;2022-09-09T13:08:58;100986.59;;;17.37;84.19
61086;BME280;46967;48.876;2.136;2022-09-09T13:11:32;100979.13;;;17.13;85.71
61086;BME280;46967;48.876;2.136;2022-09-09T13:14:00;100987.84;;;17.30;86.72
61086;BME280;46967;48.876;2.136;2022-09-09T13:16:31;100987.75;;;17.31;86.48
61086;BME280;46967;48.876;2.136;2022-09-09T13:18:58;100996.28;;;17.35;87.47
61086;BME280;46967;48.876;2.136;2022-09-09T13:21:35;100984.63;;;17.41;86.02
61086;BME280;46967;48.876;2.136;2022-09-09T13:24:04;100999.88;;;17.50;85.56
61086;BME280;46967;48.876;2.136;2022-09-09T13:26:33;100987.34;;;17.39;84.96
61086;BME280;46967;48.876;2.136;2022-09-09T13:29:29;100989.72;;;17.28;86.89
61086;BME280;46967;48.876;2.136;2022-09-09T13:32:16;100992.91;;;17.33;88.38
61086;BME280;46967;48.876;2.136;2022-09-09T13:34:53;100986.44;;;17.40;87.37
61086;BME280;46967;48.876;2.136;2022-09-09T13:39:52;100995.59;;;17.95;83.64
61086;BME280;46967;48.876;2.136;2022-09-09T13:42:26;100989.97;;;18.01;82.53
61086;BME280;46967;48.876;2.136;2022-09-09T13:44:53;100989.84;;;17.88;83.33
61086;BME280;46967;48.876;2.136;2022-09-09T13:47:27;100985.09;;;17.95;84.38
61086;BME280;46967;48.876;2.136;2022-09-09T13:49:53;100986.44;;;17.86;82.14
61086;BME280;46967;48.876;2.136;2022-09-09T13:52:19;100989.31;;;17.82;83.32
61086;BME280;46967;48.876;2.136;2022-09-09T13:54:49;100992.81;;;17.66;82.62
61086;BME280;46967;48.876;2.136;2022-09-09T13:57:17;100991.31;;;17.62;83.73
61086;BME280;46967;48.876;2.136;2022-09-09T13:59:43;100992.50;;;17.56;84.85
61086;BME280;46967;48.876;2.136;2022-09-09T14:02:09;100992.41;;;17.58;84.33
61086;BME280;46967;48.876;2.136;2022-09-09T14:04:34;100985.81;;;17.67;85.95
61086;BME280;46967;48.876;2.136;2022-09-09T14:07:00;100975.88;;;18.18;84.91
61086;BME280;46967;48.876;2.136;2022-09-09T14:09:26;100978.88;;;18.26;85.66
61086;BME280;46967;48.876;2.136;2022-09-09T14:11:51;100975.44;;;18.55;84.07
61086;BME280;46967;48.876;2.136;2022-09-09T14:14:17;100977.72;;;18.61;81.30
61086;BME280;46967;48.876;2.136;2022-09-09T14:16:42;100975.25;;;18.43;82.54
61086;BME280;46967;48.876;2.136;2022-09-09T14:19:08;100980.03;;;18.22;81.49
61086;BME280;46967;48.876;2.136;2022-09-09T14:21:34;100975.50;;;18.24;81.84
61086;BME280;46967;48.876;2.136;2022-09-09T14:23:59;100982.06;;;18.32;83.29
61086;BME280;46967;48.876;2.136;2022-09-09T14:26:25;100983.97;;;18.58;81.78
61086;BME280;46967;48.876;2.136;2022-09-09T14:28:52;100980.53;;;18.72;81.44
61086;BME280;46967;48.876;2.136;2022-09-09T14:31:17;100977.44;;;18.65;80.29
61086;BME280;46967;48.876;2.136;2022-09-09T14:33:44;100979.78;;;18.99;80.82
61086;BME280;46967;48.876;2.136;2022-09-09T14:36:10;100978.25;;;19.09;81.02
61086;BME280;46967;48.876;2.136;2022-09-09T14:38:37;100972.09;;;18.96;78.76
61086;BME280;46967;48.876;2.136;2022-09-09T14:41:09;100980.41;;;19.17;77.92
61086;BME280;46967;48.876;2.136;2022-09-09T14:43:35;100969.91;;;19.03;77.11
61086;BME280;46967;48.876;2.136;2022-09-09T14:46:07;100979.53;;;18.89;77.48
61086;BME280;46967;48.876;2.136;2022-09-09T14:48:34;100979.78;;;18.70;77.62
61086;BME280;46967;48.876;2.136;2022-09-09T14:51:16;100982.78;;;18.64;80.05
61086;BME280;46967;48.876;2.136;2022-09-09T14:53:43;100989.63;;;18.67;80.07
61086;BME280;46967;48.876;2.136;2022-09-09T14:56:11;100985.16;;;18.97;79.36
61086;BME280;46967;48.876;2.136;2022-09-09T14:58:37;100982.84;;;19.20;77.16
61086;BME280;46967;48.876;2.136;2022-09-09T15:01:11;100973.63;;;19.27;75.63
61086;BME280;46967;48.876;2.136;2022-09-09T15:03:39;100962.78;;;19.46;75.53
61086;BME280;46967;48.876;2.136;2022-09-09T15:06:11;100962.63;;;19.62;74.82
61086;BME280;46967;48.876;2.136;2022-09-09T15:08:39;100961.47;;;19.66;73.40
61086;BME280;46967;48.876;2.136;2022-09-09T15:11:05;100953.31;;;19.57;73.52
61086;BME280;46967;48.876;2.136;2022-09-09T15:13:32;100958.97;;;19.50;73.07
61086;BME280;46967;48.876;2.136;2022-09-09T15:16:09;100965.75;;;19.27;73.83
61086;BME280;46967;48.876;2.136;2022-09-09T15:18:35;100969.78;;;19.18;73.67
61086;BME280;46967;48.876;2.136;2022-09-09T15:21:02;100962.53;;;19.22;73.97
61086;BME280;46967;48.876;2.136;2022-09-09T15:23:33;100962.94;;;19.30;74.10